Time;durP1;ratioP1;P1;durP2;ratioP2;P2;SDS_P1;SDS_P2;PMS_P1;PMS_P2;Temp;Humidity;BMP_temperature;BMP_pressure;BME280_temperature;BME280_humidity;BME280_pressure;Samples;Min_cycle;Max_cycle;Signal;HPM_P1;HPM_P2
2023/06/05 00:00:28;;;;;;;4.03;1.30;;;12.70;95.10;;;11.39;100.00;97813.88;5010321;28;20537;-70
2023/06/05 00:02:55;;;;;;;5.22;1.30;;;12.70;95.40;;;11.30;100.00;97815.94;4990974;28;20061;-71
2023/06/05 00:05:25;;;;;;;3.70;1.60;;;12.60;95.90;;;11.20;100.00;97814.66;5006747;28;20046;-70
2023/06/05 00:07:52;;;;;;;3.47;1.40;;;12.50;96.30;;;11.01;100.00;97813.69;5006069;28;20149;-71
2023/06/05 00:10:20;;;;;;;3.70;1.35;;;12.40;96.80;;;11.09;100.00;97815.09;4993210;28;20044;-71
2023/06/05 00:12:47;;;;;;;2.63;1.20;;;12.40;97.20;;;11.08;100.00;97821.19;4993320;28;20046;-71
2023/06/05 00:15:15;;;;;;;4.15;1.10;;;12.40;97.40;;;11.09;100.00;97806.47;4993979;28;20108;-71
2023/06/05 00:17:45;;;;;;;2.78;1.00;;;12.40;97.70;;;11.15;100.00;97816.56;4993974;28;20041;-71
2023/06/05 00:20:12;;;;;;;2.83;1.02;;;12.40;97.90;;;10.97;100.00;97809.53;5007383;28;20149;-71
2023/06/05 00:22:39;;;;;;;2.33;1.05;;;12.40;98.20;;;10.89;100.00;97818.47;4987853;28;20048;-71
2023/06/05 00:25:07;;;;;;;5.60;1.02;;;12.30;98.80;;;10.78;100.00;97810.28;4996838;28;20557;-71
2023/06/05 00:27:35;;;;;;;5.03;1.13;;;12.20;99.30;;;10.83;100.00;97810.97;5000247;28;20053;-71
2023/06/05 00:30:02;;;;;;;3.45;1.00;;;12.10;99.70;;;10.75;100.00;97813.00;5008612;28;20045;-71
2023/06/05 00:32:29;;;;;;;2.47;1.02;;;12.10;99.90;;;10.75;100.00;97805.22;5005161;28;20293;-71
2023/06/05 00:34:57;;;;;;;2.88;1.10;;;12.00;99.90;;;10.65;100.00;97806.47;4983589;28;20045;-71
2023/06/05 00:37:24;;;;;;;4.22;1.20;;;12.00;99.90;;;10.65;100.00;97806.47;5010496;28;20050;-71
2023/06/05 00:39:52;;;;;;;3.42;1.27;;;11.90;99.90;;;10.65;100.00;97798.69;5009993;28;20049;-71
2023/06/05 00:42:19;;;;;;;4.80;1.10;;;11.90;99.90;;;10.55;100.00;97805.97;5010169;28;20078;-71
2023/06/05 00:44:48;;;;;;;2.90;1.35;;;11.90;99.90;;;10.61;100.00;97797.97;4990145;28;20077;-71
2023/06/05 00:47:15;;;;;;;6.00;1.20;;;11.80;99.90;;;10.57;100.00;97803.34;5002220;28;20049;-71
2023/06/05 00:49:42;;;;;;;3.28;0.93;;;11.80;99.90;;;10.55;100.00;97810.34;5013080;28;20578;-70
2023/06/05 00:52:10;;;;;;;2.15;1.00;;;11.80;99.90;;;10.58;100.00;97810.22;4994130;28;20072;-71
2023/06/05 00:54:37;;;;;;;4.18;1.27;;;11.80;99.90;;;10.48;100.00;97798.50;4983615;28;20125;-71
2023/06/05 00:57:06;;;;;;;3.63;1.20;;;11.80;99.90;;;10.46;100.00;97799.41;4986221;28;20046;-71
2023/06/05 00:59:34;;;;;;;2.33;1.02;;;11.80;99.90;;;10.42;100.00;97805.63;4986316;28;20150;-71
2023/06/05 01:02:02;;;;;;;4.40;1.25;;;11.80;99.90;;;10.46;100.00;97807.19;5002090;28;20054;-71
2023/06/05 01:04:29;;;;;;;5.35;1.50;;;11.80;99.90;;;10.55;100.00;97807.75;4989584;28;20066;-71
2023/06/05 01:06:57;;;;;;;3.88;1.35;;;11.80;99.90;;;10.38;100.00;97803.22;4998263;28;20073;-71
2023/06/05 01:09:25;;;;;;;3.08;1.50;;;11.80;99.90;;;10.43;100.00;97804.72;5005466;28;20160;-71
2023/06/05 01:12:14;;;;;;;3.20;1.10;;;11.70;99.90;;;10.39;100.00;97805.72;5003584;28;20177;-71
2023/06/05 01:14:47;;;;;;;3.53;1.42;;;11.70;99.90;;;10.32;100.00;97804.28;4987926;28;20116;-71
2023/06/05 01:17:18;;;;;;;3.80;1.23;;;11.70;99.90;;;10.21;100.00;97803.81;4998067;28;20139;-71
2023/06/05 01:19:49;;;;;;;2.35;1.15;;;11.60;99.90;;;10.16;100.00;97798.78;5007615;28;20046;-70
2023/06/05 01:22:16;;;;;;;2.55;1.25;;;11.60;99.90;;;10.10;100.00;97803.34;5007462;28;20142;-71
2023/06/05 01:24:43;;;;;;;3.78;1.30;;;11.40;99.90;;;9.94;100.00;97801.31;4987520;28;20472;-71
2023/06/05 01:27:41;;;;;;;2.60;1.40;;;11.40;99.90;;;9.89;100.00;97792.88;4990085;28;20054;-71
2023/06/05 01:30:28;;;;;;;4.18;1.17;;;11.30;99.90;;;9.84;100.00;97793.03;5004521;28;20404;-71
2023/06/05 01:33:02;;;;;;;2.20;1.10;;;11.20;99.90;;;9.75;100.00;97790.78;5004373;28;20383;-71
2023/06/05 01:35:35;;;;;;;3.05;1.17;;;11.10;99.90;;;9.66;100.00;97783.31;4991313;28;20050;-70
2023/06/05 01:38:09;;;;;;;2.83;1.00;;;11.00;99.90;;;9.69;100.00;97787.56;4985252;28;20472;-71
2023/06/05 01:40:37;;;;;;;3.03;1.17;;;11.00;99.90;;;9.70;100.00;97784.91;4977989;28;20093;-71
2023/06/05 01:43:07;;;;;;;6.28;0.80;;;11.00;99.90;;;9.69;100.00;97787.56;5000197;28;20085;-71
2023/06/05 01:45:37;;;;;;;4.75;1.00;;;11.00;99.90;;;9.64;100.00;97779.94;5002980;28;20083;-71
2023/06/05 01:48:05;;;;;;;3.38;1.02;;;10.90;99.90;;;9.60;100.00;97780.94;4993357;28;20209;-71
2023/06/05 01:50:36;;;;;;;3.10;0.90;;;10.90;99.90;;;9.61;100.00;97787.84;4994843;28;20534;-71
2023/06/05 01:53:04;;;;;;;3.25;1.00;;;10.90;99.90;;;9.66;100.00;97779.91;4991592;28;20052;-71
2023/06/05 01:55:31;;;;;;;3.95;1.48;;;10.90;99.90;;;9.51;100.00;97786.44;5001085;28;20050;-71
2023/06/05 01:57:58;;;;;;;3.20;1.08;;;10.90;99.90;;;9.38;100.00;97786.88;4995578;28;20065;-71
2023/06/05 02:00:27;;;;;;;3.88;1.10;;;10.80;99.90;;;9.31;100.00;97782.81;4998744;28;20051;-71
2023/06/05 02:02:54;;;;;;;1.98;1.00;;;10.70;99.90;;;9.23;100.00;97779.63;4990471;28;20046;-71
2023/06/05 02:05:21;;;;;;;2.47;0.93;;;10.60;99.90;;;9.20;100.00;97782.34;4989183;28;20168;-71
2023/06/05 02:07:53;;;;;;;2.53;1.00;;;10.60;99.90;;;9.16;100.00;97778.16;5001913;28;20078;-71
2023/06/05 02:10:21;;;;;;;2.70;1.08;;;10.50;99.90;;;9.23;100.00;97777.03;5001264;28;20058;-71
2023/06/05 02:12:48;;;;;;;3.65;0.98;;;10.50;99.90;;;9.18;100.00;97781.53;4992063;28;20221;-71
2023/06/05 02:15:16;;;;;;;3.28;0.82;;;10.50;99.90;;;9.11;100.00;97775.72;5005468;28;20135;-71
2023/06/05 02:17:50;;;;;;;3.08;0.90;;;10.40;99.90;;;9.05;100.00;97778.50;5006717;28;20046;-71
2023/06/05 02:20:21;;;;;;;2.80;1.00;;;10.40;99.90;;;9.13;100.00;97780.84;5008045;28;20052;-71
2023/06/05 02:22:51;;;;;;;3.45;1.00;;;10.30;99.90;;;9.21;100.00;97774.53;5006670;28;20105;-72
2023/06/05 02:25:20;;;;;;;2.50;0.98;;;10.30;99.90;;;9.26;100.00;97779.56;5010588;28;20057;-70
2023/06/05 02:27:48;;;;;;;2.10;1.00;;;10.40;99.90;;;9.22;100.00;97772.78;5013100;28;20506;-71
2023/06/05 02:30:15;;;;;;;3.58;1.08;;;10.50;99.90;;;9.18;100.00;97773.78;5005405;28;20077;-70
2023/06/05 02:32:43;;;;;;;2.53;0.80;;;10.40;99.90;;;9.12;100.00;97776.56;5010299;28;20052;-71
2023/06/05 02:35:12;;;;;;;4.13;0.98;;;10.40;99.90;;;9.00;100.00;97783.00;4999805;28;20103;-70
2023/06/05 02:37:44;;;;;;;5.57;1.10;;;10.30;99.90;;;9.05;100.00;97778.50;4986974;28;20069;-71
2023/06/05 02:40:14;;;;;;;3.17;1.30;;;10.30;99.90;;;9.09;100.00;97774.91;5005529;28;20058;-71
2023/06/05 02:42:41;;;;;;;1.92;0.90;;;10.30;99.90;;;9.08;100.00;97772.41;4999339;28;20046;-70
2023/06/05 02:45:09;;;;;;;4.25;1.00;;;10.30;99.90;;;9.19;100.00;97767.69;5010284;28;20045;-70
2023/06/05 02:47:36;;;;;;;1.90;0.80;;;10.30;99.90;;;9.14;100.00;97767.84;5011616;28;20539;-71
2023/06/05 02:50:07;;;;;;;2.58;0.65;;;10.30;99.90;;;9.08;100.00;97762.03;5008718;28;20169;-70
2023/06/05 02:52:39;;;;;;;5.25;0.98;;;10.30;99.90;;;9.06;100.00;97774.19;4997190;28;20057;-71
2023/06/05 02:55:07;;;;;;;3.88;1.10;;;10.30;99.90;;;9.01;100.00;97774.34;5009293;28;20077;-71
2023/06/05 02:57:41;;;;;;;2.65;0.70;;;10.20;99.90;;;9.03;100.00;97771.69;4989822;28;20045;-71
2023/06/05 03:00:14;;;;;;;5.80;0.95;;;10.30;99.90;;;9.03;100.00;97769.09;5001591;28;20053;-71
2023/06/05 03:02:41;;;;;;;8.48;1.20;;;10.20;99.90;;;8.99;100.00;97771.78;5009576;28;20042;-70
2023/06/05 03:05:09;;;;;;;3.42;1.05;;;10.20;99.90;;;8.99;100.00;97765.78;5002884;28;20588;-71
2023/06/05 03:07:37;;;;;;;3.17;1.08;;;10.20;99.90;;;8.94;100.00;97773.69;4973771;28;20077;-70
2023/06/05 03:10:06;;;;;;;2.05;0.90;;;10.20;99.90;;;8.79;100.00;97769.00;5007049;28;20112;-70
2023/06/05 03:12:33;;;;;;;2.40;1.00;;;10.10;99.90;;;8.73;100.00;97782.13;4973180;28;20082;-70
2023/06/05 03:15:01;;;;;;;2.80;0.90;;;10.10;99.90;;;8.70;100.00;97775.31;5005952;28;20135;-71
2023/06/05 03:17:28;;;;;;;2.58;0.93;;;10.00;99.90;;;8.87;100.00;97771.34;5006674;28;20092;-71
2023/06/05 03:19:55;;;;;;;6.88;1.27;;;10.00;99.90;;;8.92;100.00;97778.06;5006565;28;20100;-71
2023/06/05 03:22:24;;;;;;;2.95;0.80;;;10.10;99.90;;;9.01;100.00;97771.75;4994379;28;20049;-70
2023/06/05 03:24:51;;;;;;;4.22;0.95;;;10.10;99.90;;;9.09;100.00;97771.50;5010910;28;20142;-71
2023/06/05 03:27:18;;;;;;;2.70;0.80;;;10.20;99.90;;;9.10;100.00;97770.56;5004453;28;20045;-70
2023/06/05 03:29:46;;;;;;;2.15;0.93;;;10.20;99.90;;;9.11;100.00;97775.72;5007173;28;20077;-71
2023/06/05 03:32:13;;;;;;;3.33;0.90;;;10.30;99.90;;;9.08;100.00;97775.84;5013842;28;20168;-71
2023/06/05 03:34:42;;;;;;;4.32;1.00;;;10.30;99.90;;;9.04;100.00;97776.81;5007769;28;20140;-71
2023/06/05 03:37:09;;;;;;;4.00;1.20;;;10.30;99.90;;;9.11;100.00;97782.66;5015019;28;20145;-72
2023/06/05 03:39:36;;;;;;;2.58;1.00;;;10.30;99.90;;;9.11;100.00;97780.91;5010747;28;20045;-71
2023/06/05 03:42:09;;;;;;;4.53;1.00;;;10.30;99.90;;;9.15;100.00;97779.91;5014208;28;20081;-72
2023/06/05 03:44:35;;;;;;;4.60;1.13;;;10.40;99.90;;;9.16;100.00;97773.81;5009120;28;20112;-71
2023/06/05 03:47:04;;;;;;;4.30;0.93;;;10.40;99.90;;;9.17;100.00;97770.34;4987042;28;20077;-72
2023/06/05 03:49:35;;;;;;;4.90;1.00;;;10.30;99.90;;;9.19;100.00;97771.13;5005418;28;20045;-71
2023/06/05 03:52:03;;;;;;;6.35;1.02;;;10.40;99.90;;;9.20;100.00;97777.16;4994122;28;20038;-71
2023/06/05 03:54:33;;;;;;;3.58;1.00;;;10.40;99.90;;;9.15;100.00;97774.72;5007568;28;20057;-71
2023/06/05 03:57:02;;;;;;;2.17;0.90;;;10.40;99.90;;;9.04;100.00;97774.22;5006625;28;20052;-71
2023/06/05 03:59:29;;;;;;;3.00;0.90;;;10.40;99.90;;;9.10;100.00;97778.34;4990526;28;20050;-71
2023/06/05 04:01:56;;;;;;;3.95;1.15;;;10.30;99.90;;;9.12;100.00;97779.16;5002950;28;20133;-70
2023/06/05 04:04:24;;;;;;;2.67;0.82;;;10.30;99.90;;;9.17;100.00;97772.09;4974552;28;20045;-71
2023/06/05 04:06:55;;;;;;;2.47;0.90;;;10.30;99.90;;;9.17;100.00;97772.09;5006212;28;20132;-71
2023/06/05 04:09:22;;;;;;;3.42;1.10;;;10.40;99.90;;;9.21;100.00;97779.72;5003310;28;20055;-71
2023/06/05 04:11:50;;;;;;;3.30;1.08;;;10.40;99.90;;;9.29;100.00;97779.44;5009207;28;20046;-71
2023/06/05 04:14:17;;;;;;;3.88;0.90;;;10.40;99.90;;;9.39;100.00;97773.03;5010539;28;20435;-71
2023/06/05 04:16:44;;;;;;;4.18;1.23;;;10.50;99.90;;;9.46;100.00;97778.00;5004047;28;20462;-71
2023/06/05 04:19:12;;;;;;;4.05;0.90;;;10.50;99.90;;;9.52;100.00;97778.63;5004459;28;20062;-71
2023/06/05 04:21:41;;;;;;;1.80;0.93;;;10.60;99.90;;;9.38;100.00;97786.03;4994319;28;20046;-71
2023/06/05 04:24:10;;;;;;;2.50;1.00;;;10.60;99.90;;;9.31;100.00;97779.38;4996097;28;20148;-71
2023/06/05 04:26:43;;;;;;;3.78;1.00;;;10.50;99.90;;;9.19;100.00;97783.22;5011463;28;20134;-71
2023/06/05 04:29:15;;;;;;;3.85;1.00;;;10.50;99.90;;;9.31;100.00;97781.97;5007747;28;20058;-71
2023/06/05 04:31:47;;;;;;;1.85;0.75;;;10.40;99.90;;;9.48;100.00;97784.81;5010197;28;20503;-71
2023/06/05 04:34:17;;;;;;;1.67;0.80;;;10.50;99.90;;;9.53;100.00;97788.09;4996356;28;20133;-71
2023/06/05 04:36:46;;;;;;;2.55;1.13;;;10.50;99.90;;;9.70;100.00;97784.06;5004581;28;20057;-71
2023/06/05 04:39:14;;;;;;;2.90;0.90;;;10.60;99.90;;;9.94;100.00;97779.72;5010798;28;20223;-71
2023/06/05 04:41:44;;;;;;;2.10;0.90;;;10.70;99.90;;;10.15;100.00;97781.53;5011243;28;20232;-72
2023/06/05 04:44:13;;;;;;;4.32;1.00;;;10.90;99.90;;;10.06;100.00;97779.31;5006430;28;20048;-72
2023/06/05 04:46:42;;;;;;;3.67;1.30;;;11.10;99.90;;;10.22;100.00;97775.22;4994073;28;20049;-71
2023/06/05 04:49:15;;;;;;;3.10;1.20;;;11.10;99.90;;;10.44;100.00;97771.81;4985233;28;20049;-72
2023/06/05 04:51:43;;;;;;;4.80;1.10;;;11.20;99.90;;;10.49;100.00;97766.44;5008239;28;20210;-72
2023/06/05 04:54:11;;;;;;;2.33;0.90;;;11.30;99.90;;;10.61;100.00;97768.56;5007622;28;20052;-71
2023/06/05 04:56:39;;;;;;;2.05;1.00;;;11.40;99.90;;;10.72;100.00;97776.78;5011484;28;20509;-71
2023/06/05 04:59:06;;;;;;;3.97;1.45;;;11.50;99.90;;;10.78;100.00;97771.31;5002373;28;20105;-71
2023/06/05 05:01:33;;;;;;;3.65;1.33;;;11.60;99.90;;;10.83;100.00;97774.59;5003813;28;20089;-72
2023/06/05 05:04:00;;;;;;;3.03;1.00;;;11.70;99.90;;;10.82;100.00;97772.06;5003788;28;20054;-71
2023/06/05 05:06:28;;;;;;;4.85;1.20;;;11.80;99.90;;;10.95;100.00;97774.97;5002418;28;20140;-71
2023/06/05 05:08:55;;;;;;;2.55;0.90;;;11.90;99.90;;;11.21;100.00;97777.34;4993592;28;20049;-71
2023/06/05 05:11:23;;;;;;;3.20;1.27;;;11.90;99.90;;;11.30;100.00;97771.78;5007575;28;20053;-71
2023/06/05 05:13:50;;;;;;;1.63;0.90;;;12.00;99.90;;;11.58;100.00;97772.34;4993311;28;20502;-72
2023/06/05 05:16:17;;;;;;;2.65;1.13;;;12.20;99.90;;;11.79;100.00;97763.63;5004466;28;20061;-71
2023/06/05 05:18:45;;;;;;;4.40;1.08;;;12.40;99.90;;;12.16;100.00;97763.72;5006991;28;20045;-71
2023/06/05 05:21:12;;;;;;;1.77;1.00;;;12.70;99.90;;;12.41;100.00;97760.84;4988839;28;20157;-72
2023/06/05 05:23:39;;;;;;;3.55;1.30;;;12.90;99.90;;;12.54;100.00;97759.31;5003893;28;20060;-72
2023/06/05 05:26:10;;;;;;;1.60;0.88;;;13.10;99.90;;;12.72;100.00;97755.00;4989264;28;20053;-72
2023/06/05 05:28:37;;;;;;;3.70;1.15;;;13.30;99.90;;;12.87;100.00;97756.88;5006117;28;20064;-71
2023/06/05 05:31:04;;;;;;;2.40;1.00;;;13.50;99.90;;;13.09;100.00;97751.44;5003991;28;20538;-72
2023/06/05 05:33:32;;;;;;;4.43;0.90;;;13.70;99.90;;;13.22;100.00;97743.00;5006063;28;20491;-72
2023/06/05 05:35:59;;;;;;;4.32;1.15;;;13.90;99.90;;;13.31;100.00;97750.38;5004074;28;20450;-72
2023/06/05 05:38:26;;;;;;;4.35;0.85;;;14.00;99.90;;;13.56;100.00;97753.41;5005255;28;20046;-72
2023/06/05 05:40:53;;;;;;;3.03;1.08;;;14.20;99.90;;;13.63;100.00;97751.31;5007712;28;20049;-71
2023/06/05 05:43:20;;;;;;;4.03;0.98;;;14.30;99.90;;;13.89;100.00;97747.38;4990480;28;20080;-71
2023/06/05 05:45:48;;;;;;;4.13;1.30;;;14.40;99.90;;;13.97;100.00;97749.56;5008073;28;20076;-71
2023/06/05 05:48:15;;;;;;;3.97;0.93;;;14.60;99.90;;;14.07;100.00;97747.28;5007686;28;20079;-71
2023/06/05 05:50:42;;;;;;;1.80;1.05;;;14.70;99.90;;;14.08;100.00;97751.59;5004938;28;20514;-72
2023/06/05 05:53:09;;;;;;;1.90;0.80;;;14.70;99.90;;;14.27;100.00;97757.47;4990935;28;20114;-71
2023/06/05 05:55:36;;;;;;;3.42;0.80;;;14.90;99.90;;;14.40;100.00;97753.28;5006929;28;20049;-71
2023/06/05 05:58:04;;;;;;;1.85;0.88;;;15.00;99.90;;;14.52;100.00;97754.38;5003757;28;20046;-72
2023/06/05 06:00:31;;;;;;;3.15;0.93;;;15.10;99.90;;;14.59;100.00;97745.28;5011401;28;20054;-72
2023/06/05 06:02:58;;;;;;;2.50;1.10;;;15.30;99.80;;;14.59;100.00;97747.06;4985847;28;20839;-72
2023/06/05 06:05:26;;;;;;;3.40;1.00;;;15.30;98.60;;;14.72;100.00;97745.44;5000183;28;20124;-72
2023/06/05 06:07:53;;;;;;;4.18;0.90;;;15.40;99.50;;;14.76;100.00;97743.50;5004474;28;20467;-72
2023/06/05 06:10:20;;;;;;;2.53;0.90;;;15.50;98.90;;;14.86;100.00;97744.66;5005892;28;20391;-72
2023/06/05 06:12:48;;;;;;;6.72;1.00;;;15.60;98.80;;;15.00;100.00;97746.47;4998517;28;20050;-72
2023/06/05 06:15:15;;;;;;;4.65;1.00;;;15.70;98.40;;;15.05;100.00;97733.97;4988337;28;20061;-72
2023/06/05 06:17:42;;;;;;;4.28;1.02;;;15.80;97.90;;;15.25;100.00;97738.03;4984397;28;20121;-71
2023/06/05 06:20:12;;;;;;;2.67;0.90;;;15.90;97.90;;;15.35;100.00;97741.81;4997888;28;20065;-71
2023/06/05 06:22:40;;;;;;;2.42;0.80;;;16.00;97.50;;;15.43;100.00;97746.56;5002407;28;20054;-72
2023/06/05 06:25:10;;;;;;;1.80;0.80;;;16.10;97.10;;;15.71;100.00;97748.41;5009067;28;20054;-72
2023/06/05 06:27:38;;;;;;;2.38;0.95;;;16.30;96.80;;;15.60;100.00;97745.56;4982132;28;20049;-72
2023/06/05 06:30:07;;;;;;;3.35;0.82;;;16.40;95.80;;;15.91;100.00;97743.75;5007761;28;20081;-72
2023/06/05 06:32:34;;;;;;;2.67;0.93;;;16.50;96.60;;;16.03;100.00;97742.97;4987843;28;20079;-71
2023/06/05 06:35:01;;;;;;;2.60;0.80;;;16.60;96.60;;;16.04;100.00;97749.91;5007649;28;20045;-72
2023/06/05 06:37:28;;;;;;;2.72;0.90;;;16.70;96.10;;;16.19;100.00;97751.53;4990112;28;20054;-72
2023/06/05 06:39:55;;;;;;;5.93;1.02;;;16.90;95.60;;;16.09;100.00;97750.44;5004784;28;20050;-72
2023/06/05 06:42:23;;;;;;;3.33;1.00;;;17.00;95.00;;;16.22;100.00;97746.13;5013554;28;20506;-72
2023/06/05 06:44:55;;;;;;;4.70;1.10;;;17.00;94.50;;;16.30;100.00;97751.72;4993211;28;20046;-72
2023/06/05 06:47:25;;;;;;;5.18;1.05;;;17.00;94.50;;;16.37;100.00;97759.19;5017349;28;20045;-72
2023/06/05 06:49:53;;;;;;;3.95;1.00;;;17.10;94.20;;;16.43;100.00;97759.66;4998584;28;20069;-72
2023/06/05 06:52:21;;;;;;;4.13;1.20;;;17.10;94.30;;;16.48;100.00;97760.19;5000691;28;20065;-72
2023/06/05 06:54:51;;;;;;;3.88;1.23;;;17.20;94.40;;;16.67;100.00;97759.00;5001598;28;20612;-72
2023/06/05 06:57:19;;;;;;;2.83;0.90;;;17.30;94.20;;;16.73;100.00;97762.06;5018832;28;20149;-72
2023/06/05 06:59:46;;;;;;;2.15;0.70;;;17.40;94.30;;;17.08;100.00;97761.63;4998247;28;20502;-71
2023/06/05 07:02:16;;;;;;;2.30;1.00;;;17.60;94.60;;;17.20;100.00;97753.88;5021827;28;20125;-72
2023/06/05 07:04:44;;;;;;;4.20;1.00;;;17.70;94.80;;;17.65;100.00;97751.69;5002421;28;20050;-72
2023/06/05 07:07:13;;;;;;;2.17;0.90;;;18.00;95.40;;;17.21;100.00;97750.28;5012953;28;20155;-71
2023/06/05 07:09:42;;;;;;;2.40;1.00;;;18.10;94.10;;;17.12;100.00;97749.13;4988538;28;20054;-72
2023/06/05 07:12:11;;;;;;;2.70;0.90;;;18.10;94.30;;;17.46;100.00;97742.44;5015042;28;20077;-72
2023/06/05 07:14:39;;;;;;;3.15;1.02;;;18.10;94.80;;;17.52;100.00;97755.16;4994559;28;20129;-72
2023/06/05 07:17:07;;;;;;;2.97;1.00;;;18.10;94.30;;;17.88;100.00;97748.38;4982072;28;20118;-72
2023/06/05 07:19:38;;;;;;;4.93;1.10;;;18.30;94.70;;;17.58;100.00;97747.81;5013899;28;20042;-72
2023/06/05 07:22:06;;;;;;;4.68;1.00;;;18.40;93.60;;;17.56;100.00;97748.75;4999368;28;20071;-73
2023/06/05 07:24:41;;;;;;;6.25;1.10;;;18.40;93.60;;;17.56;100.00;97753.16;4997819;28;20466;-72
2023/06/05 07:27:08;;;;;;;3.05;0.90;;;18.50;93.50;;;17.98;100.00;97749.38;5014014;28;20136;-71
2023/06/05 07:29:36;;;;;;;4.20;1.02;;;18.50;93.90;;;17.86;100.00;97755.50;5009543;28;20081;-72
2023/06/05 07:32:07;;;;;;;2.67;0.73;;;18.70;93.10;;;17.96;100.00;97753.91;4994680;28;20045;-72
2023/06/05 07:34:34;;;;;;;4.57;1.30;;;18.70;93.40;;;18.43;100.00;97761.16;4999206;28;20062;-71
2023/06/05 07:37:02;;;;;;;5.43;0.93;;;18.90;93.70;;;18.06;100.00;97750.63;4991651;28;20042;-71
2023/06/05 07:39:30;;;;;;;3.03;1.02;;;19.00;92.40;;;18.22;100.00;97753.84;4993752;28;20049;-72
2023/06/05 07:41:57;;;;;;;2.53;0.77;;;19.10;93.00;;;18.58;100.00;97752.16;4992494;28;20050;-72
2023/06/05 07:44:24;;;;;;;3.28;1.10;;;19.20;93.20;;;18.67;100.00;97748.03;4986414;28;20061;-72
2023/06/05 07:46:52;;;;;;;2.10;0.95;;;19.30;93.50;;;18.83;100.00;97745.16;5011007;28;20051;-72
2023/06/05 07:49:19;;;;;;;3.53;1.05;;;19.50;93.10;;;19.11;100.00;97750.06;5014913;28;20054;-72
2023/06/05 07:51:48;;;;;;;2.95;1.10;;;19.60;92.60;;;18.90;100.00;97749.84;5011649;28;20058;-72
2023/06/05 07:54:16;;;;;;;3.97;1.10;;;19.70;92.50;;;19.05;100.00;97753.16;4995710;28;20157;-72
2023/06/05 07:56:43;;;;;;;3.70;1.10;;;19.80;92.80;;;19.47;100.00;97742.13;5002823;28;20041;-72
2023/06/05 07:59:14;;;;;;;3.60;1.00;;;20.00;92.60;;;19.35;100.00;97747.38;4995754;28;20104;-72
2023/06/05 08:01:43;;;;;;;2.35;0.90;;;20.10;92.00;;;19.41;100.00;97739.03;4994557;28;20046;-72
2023/06/05 08:04:11;;;;;;;4.72;1.00;;;;;;;19.47;100.00;97747.41;4989144;28;20061;-72
2023/06/05 08:06:39;;;;;;;5.35;1.10;;;20.30;90.80;;;19.86;100.00;97746.16;5011965;28;20046;-72
2023/06/05 08:09:09;;;;;;;7.15;1.20;;;20.40;91.40;;;20.01;100.00;97746.75;5009567;28;20586;-72
2023/06/05 08:11:38;;;;;;;5.55;1.10;;;20.50;91.30;;;19.80;100.00;97741.38;5011002;28;20459;-72
2023/06/05 08:14:06;;;;;;;4.38;1.33;;;20.50;90.90;;;19.50;100.00;97747.16;5011088;28;20050;-73
2023/06/05 08:16:34;;;;;;;2.38;0.88;;;20.50;89.70;;;19.75;100.00;97741.75;5012326;28;20558;-72
2023/06/05 08:19:02;;;;;;;2.55;0.90;;;20.60;89.90;;;20.23;100.00;97738.84;5003764;28;20054;-72
2023/06/05 08:21:30;;;;;;;3.72;0.80;;;20.80;90.60;;;20.19;100.00;97740.03;4991082;28;20069;-72
2023/06/05 08:23:57;;;;;;;2.85;0.90;;;20.90;90.30;;;20.27;100.00;97735.00;5002552;28;20046;-72
2023/06/05 08:26:25;;;;;;;5.22;1.17;;;20.90;90.40;;;20.27;100.00;97734.16;4997065;28;20053;-73
2023/06/05 08:28:53;;;;;;;6.13;1.05;;;21.10;90.00;;;20.87;100.00;97727.56;5008979;28;20049;-73
2023/06/05 08:31:20;;;;;;;2.65;1.17;;;21.30;90.00;;;20.71;99.93;97735.06;5010352;28;20054;-73
2023/06/05 08:33:48;;;;;;;2.83;1.00;;;21.40;88.40;;;20.52;96.18;97729.56;4981952;28;20136;-72
2023/06/05 08:36:16;;;;;;;2.08;0.90;;;21.40;86.30;;;21.04;97.96;97723.50;4998989;28;20091;-73
2023/06/05 08:38:44;;;;;;;3.10;0.93;;;21.40;88.10;;;21.36;96.95;97717.34;4996748;28;20044;-72
2023/06/05 08:41:15;;;;;;;18.80;1.23;;;21.40;87.90;;;21.41;93.01;97722.25;4991103;28;20580;-72
2023/06/05 08:43:46;;;;;;;;;;;21.30;87.40;;;21.23;88.64;97724.63;5005222;28;20053;-73
2023/06/05 08:46:14;;;;;;;3.67;1.00;;;21.70;84.50;;;21.88;89.18;97728.78;4990921;28;19929;-73
2023/06/05 08:48:45;;;;;;;3.72;1.10;;;21.80;85.40;;;22.45;88.67;97718.53;5002176;28;20045;-72
2023/06/05 08:51:18;;;;;;;3.25;1.00;;;22.00;86.20;;;22.77;87.57;97723.59;5000177;28;20580;-72
2023/06/05 08:53:58;;;;;;;2.47;1.00;;;22.40;85.00;;;22.84;88.00;97723.88;5008760;28;20053;-73
2023/06/05 08:56:27;;;;;;;6.50;0.90;;;22.90;84.70;;;23.12;85.05;97719.56;5006476;28;20148;-72
2023/06/05 08:58:55;;;;;;;5.35;1.13;;;23.20;83.50;;;23.60;83.26;97725.75;5008588;28;20809;-73
2023/06/05 09:01:26;;;;;;;4.65;0.98;;;23.80;82.40;;;24.04;82.25;97723.41;5004372;28;20056;-72
2023/06/05 09:03:56;;;;;;;1.70;0.82;;;24.40;81.50;;;24.68;81.37;97726.13;5006849;28;20426;-73
2023/06/05 09:06:23;;;;;;;3.22;1.00;;;24.80;81.30;;;23.96;80.53;97718.81;5011142;28;20054;-73
2023/06/05 09:08:51;;;;;;;2.05;0.80;;;24.80;78.90;;;23.93;78.23;97724.44;5009132;28;20129;-73
2023/06/05 09:11:31;;;;;;;5.63;1.10;;;25.30;79.00;;;23.60;80.03;97723.09;5010435;28;20061;-73
2023/06/05 09:14:02;;;;;;;4.53;1.13;;;25.60;77.40;;;23.62;81.03;97715.03;5006307;28;20050;-73
2023/06/05 09:16:42;;;;;;;5.65;1.23;;;25.30;77.00;;;24.00;77.93;97709.59;4980909;28;20129;-73
2023/06/05 09:19:13;;;;;;;2.65;0.90;;;25.60;76.40;;;24.28;78.59;97714.06;5011997;28;20465;-72
2023/06/05 09:21:40;;;;;;;2.57;0.90;;;26.00;75.90;;;24.41;77.11;97710.09;4997828;28;20041;-73
2023/06/05 09:24:17;;;;;;;1.85;0.90;;;26.60;75.50;;;24.07;76.51;97715.16;5003752;28;20728;-73
2023/06/05 09:26:50;;;;;;;3.83;0.95;;;26.10;73.80;;;24.28;77.26;97706.13;4999999;28;20835;-73
2023/06/05 09:29:28;;;;;;;2.08;1.02;;;26.20;74.40;;;24.68;75.41;97705.75;5005431;28;20537;-73
2023/06/05 09:31:58;;;;;;;3.45;1.10;;;26.60;74.10;;;25.24;74.38;97701.09;5006807;28;20167;-73
2023/06/05 09:34:35;;;;;;;2.45;1.00;;;26.90;74.10;;;25.04;72.78;97705.72;4991276;28;20057;-73
2023/06/05 09:37:09;;;;;;;1.75;0.85;;;27.00;72.50;;;24.91;73.59;97705.31;5005502;28;20042;-72
2023/06/05 09:39:39;;;;;;;1.83;1.02;;;26.70;72.50;;;25.48;74.22;97697.78;5013690;28;20391;-73
2023/06/05 09:42:06;;;;;;;4.30;1.08;;;26.90;72.80;;;24.95;74.09;97707.50;5006628;28;20053;-73
2023/06/05 09:44:35;;;;;;;2.90;0.90;;;27.00;71.80;;;26.06;73.22;97701.59;5008981;28;20108;-73
2023/06/05 09:47:11;;;;;;;8.55;0.95;;;27.20;72.20;;;25.51;71.97;97708.09;4998006;28;20118;-73
2023/06/05 09:49:41;;;;;;;7.75;1.15;;;27.50;71.30;;;25.66;72.18;97700.41;5002747;28;20062;-73
2023/06/05 09:52:12;;;;;;;5.43;1.08;;;27.30;71.00;;;25.75;71.23;97699.44;5004519;28;20073;-73
2023/06/05 09:54:44;;;;;;;3.50;1.10;;;27.60;71.20;;;26.10;71.20;97700.28;4999493;28;20053;-73
2023/06/05 09:57:14;;;;;;;3.65;0.90;;;27.80;70.90;;;25.89;71.59;97695.38;4974710;28;20057;-73
2023/06/05 09:59:55;;;;;;;3.33;1.13;;;27.20;70.90;;;26.68;70.88;97695.97;4983792;28;20652;-73
2023/06/05 10:02:33;;;;;;;4.53;0.93;;;27.80;71.10;;;26.00;68.38;97696.91;5003866;28;20809;-73
2023/06/05 10:05:04;;;;;;;3.28;1.13;;;27.90;69.20;;;25.31;68.77;97696.00;4991541;28;20124;-72
2023/06/05 10:07:32;;;;;;;2.55;1.00;;;27.90;68.70;;;25.81;69.06;97700.63;4995217;28;20053;-73
2023/06/05 10:10:00;;;;;;;6.55;1.13;;;27.50;69.40;;;25.95;70.08;97691.25;4988743;28;20134;-74
2023/06/05 10:12:27;;;;;;;1.80;0.85;;;27.60;70.30;;;26.12;69.04;97692.16;4992617;28;20054;-75
2023/06/05 10:14:55;;;;;;;2.17;1.10;;;27.60;69.90;;;26.72;68.66;97688.50;5002429;28;20066;-74
2023/06/05 10:17:23;;;;;;;5.50;1.10;;;27.80;70.10;;;26.59;67.59;97691.63;4984886;28;20057;-74
2023/06/05 10:19:51;;;;;;;2.55;1.02;;;27.80;69.60;;;27.18;66.71;97687.00;5002558;28;20112;-73
2023/06/05 10:22:19;;;;;;;1.95;1.00;;;28.10;69.60;;;27.15;66.63;97692.69;5006136;28;20432;-74